sensor_id;sensor_type;location;lat;lon;timestamp;P1;durP1;ratioP1;P2;durP2;ratioP2
2944;SDS011;1482;51.398;7.128;2022-10-16T00:00:57;6.63;;;3.77;;
2944;SDS011;1482;51.398;7.128;2022-10-16T00:03:22;4.33;;;3.60;;
2944;SDS011;1482;51.398;7.128;2022-10-16T00:05:48;6.13;;;3.93;;
2944;SDS011;1482;51.398;7.128;2022-10-16T00:08:14;4.13;;;3.40;;
2944;SDS011;1482;51.398;7.128;2022-10-16T00:10:40;4.80;;;3.60;;
2944;SDS011;1482;51.398;7.128;2022-10-16T00:13:06;3.07;;;2.77;;
2944;SDS011;1482;51.398;7.128;2022-10-16T00:15:36;11.50;;;3.57;;
2944;SDS011;1482;51.398;7.128;2022-10-16T00:18:02;6.20;;;3.13;;
2944;SDS011;1482;51.398;7.128;2022-10-16T00:20:29;5.47;;;3.50;;
2944;SDS011;1482;51.398;7.128;2022-10-16T00:22:56;3.70;;;2.73;;
2944;SDS011;1482;51.398;7.128;2022-10-16T00:25:22;3.77;;;2.47;;
2944;SDS011;1482;51.398;7.128;2022-10-16T00:27:48;3.10;;;2.80;;
2944;SDS011;1482;51.398;7.128;2022-10-16T00:30:13;4.80;;;2.53;;
2944;SDS011;1482;51.398;7.128;2022-10-16T00:32:39;4.60;;;2.53;;
2944;SDS011;1482;51.398;7.128;2022-10-16T00:35:04;5.03;;;3.00;;
2944;SDS011;1482;51.398;7.128;2022-10-16T00:37:30;8.17;;;2.50;;
2944;SDS011;1482;51.398;7.128;2022-10-16T00:39:56;6.87;;;2.50;;
2944;SDS011;1482;51.398;7.128;2022-10-16T00:42:22;4.40;;;2.37;;
2944;SDS011;1482;51.398;7.128;2022-10-16T00:44:49;2.60;;;2.40;;
2944;SDS011;1482;51.398;7.128;2022-10-16T00:50:04;4.03;;;2.30;;
2944;SDS011;1482;51.398;7.128;2022-10-16T00:52:34;2.40;;;2.20;;
2944;SDS011;1482;51.398;7.128;2022-10-16T00:55:02;4.17;;;2.10;;
2944;SDS011;1482;51.398;7.128;2022-10-16T00:57:29;3.70;;;3.40;;
2944;SDS011;1482;51.398;7.128;2022-10-16T00:59:55;4.33;;;2.53;;
2944;SDS011;1482;51.398;7.128;2022-10-16T01:02:21;2.30;;;2.10;;
2944;SDS011;1482;51.398;7.128;2022-10-16T01:04:48;2.20;;;2.00;;
2944;SDS011;1482;51.398;7.128;2022-10-16T01:07:20;4.13;;;2.53;;
2944;SDS011;1482;51.398;7.128;2022-10-16T01:09:52;3.47;;;2.63;;
2944;SDS011;1482;51.398;7.128;2022-10-16T01:15:37;6.50;;;2.83;;
2944;SDS011;1482;51.398;7.128;2022-10-16T01:20:44;2.83;;;2.20;;
2944;SDS011;1482;51.398;7.128;2022-10-16T01:28:51;3.30;;;2.50;;
2944;SDS011;1482;51.398;7.128;2022-10-16T01:31:29;2.57;;;2.37;;
2944;SDS011;1482;51.398;7.128;2022-10-16T01:34:06;3.37;;;2.80;;
2944;SDS011;1482;51.398;7.128;2022-10-16T01:39:33;2.40;;;2.17;;
2944;SDS011;1482;51.398;7.128;2022-10-16T01:42:16;5.20;;;2.70;;
2944;SDS011;1482;51.398;7.128;2022-10-16T01:44:47;4.33;;;2.43;;
2944;SDS011;1482;51.398;7.128;2022-10-16T01:47:14;5.90;;;2.87;;
2944;SDS011;1482;51.398;7.128;2022-10-16T01:49:42;2.80;;;2.60;;
2944;SDS011;1482;51.398;7.128;2022-10-16T01:52:11;3.07;;;2.77;;
2944;SDS011;1482;51.398;7.128;2022-10-16T01:54:40;2.93;;;2.70;;
2944;SDS011;1482;51.398;7.128;2022-10-16T01:57:08;2.53;;;2.10;;
2944;SDS011;1482;51.398;7.128;2022-10-16T01:59:38;2.70;;;2.50;;
2944;SDS011;1482;51.398;7.128;2022-10-16T02:02:09;11.03;;;2.83;;
2944;SDS011;1482;51.398;7.128;2022-10-16T02:04:41;2.50;;;2.30;;
2944;SDS011;1482;51.398;7.128;2022-10-16T02:07:14;4.57;;;2.93;;
2944;SDS011;1482;51.398;7.128;2022-10-16T02:09:40;3.73;;;2.40;;
2944;SDS011;1482;51.398;7.128;2022-10-16T02:12:12;3.40;;;2.70;;
2944;SDS011;1482;51.398;7.128;2022-10-16T02:14:43;3.10;;;2.40;;
2944;SDS011;1482;51.398;7.128;2022-10-16T02:17:12;3.97;;;2.20;;
2944;SDS011;1482;51.398;7.128;2022-10-16T02:19:39;2.67;;;2.47;;
2944;SDS011;1482;51.398;7.128;2022-10-16T02:22:07;4.07;;;2.37;;
2944;SDS011;1482;51.398;7.128;2022-10-16T02:27:29;7.13;;;2.70;;
2944;SDS011;1482;51.398;7.128;2022-10-16T02:30:02;1.83;;;1.73;;
2944;SDS011;1482;51.398;7.128;2022-10-16T02:32:35;3.20;;;2.87;;
2944;SDS011;1482;51.398;7.128;2022-10-16T02:35:03;5.67;;;2.23;;
2944;SDS011;1482;51.398;7.128;2022-10-16T02:37:30;2.60;;;2.40;;
2944;SDS011;1482;51.398;7.128;2022-10-16T02:39:57;3.90;;;2.03;;
2944;SDS011;1482;51.398;7.128;2022-10-16T02:42:32;3.27;;;2.73;;
2944;SDS011;1482;51.398;7.128;2022-10-16T02:45:03;2.27;;;2.07;;
2944;SDS011;1482;51.398;7.128;2022-10-16T02:47:29;3.80;;;2.60;;
2944;SDS011;1482;51.398;7.128;2022-10-16T02:49:55;2.97;;;2.67;;
2944;SDS011;1482;51.398;7.128;2022-10-16T02:52:21;2.50;;;2.30;;
2944;SDS011;1482;51.398;7.128;2022-10-16T02:54:46;2.43;;;2.10;;
2944;SDS011;1482;51.398;7.128;2022-10-16T02:57:12;5.23;;;2.20;;
2944;SDS011;1482;51.398;7.128;2022-10-16T02:59:37;2.23;;;2.03;;
2944;SDS011;1482;51.398;7.128;2022-10-16T03:02:03;1.90;;;1.80;;
2944;SDS011;1482;51.398;7.128;2022-10-16T03:04:28;2.40;;;2.20;;
2944;SDS011;1482;51.398;7.128;2022-10-16T03:06:54;2.90;;;2.00;;
2944;SDS011;1482;51.398;7.128;2022-10-16T03:09:19;3.87;;;1.90;;
2944;SDS011;1482;51.398;7.128;2022-10-16T03:11:45;2.10;;;1.90;;
2944;SDS011;1482;51.398;7.128;2022-10-16T03:14:11;2.03;;;1.93;;
2944;SDS011;1482;51.398;7.128;2022-10-16T03:16:36;2.13;;;1.90;;
2944;SDS011;1482;51.398;7.128;2022-10-16T03:19:02;2.20;;;2.00;;
2944;SDS011;1482;51.398;7.128;2022-10-16T03:21:27;2.47;;;1.80;;
2944;SDS011;1482;51.398;7.128;2022-10-16T03:23:53;7.87;;;1.60;;
2944;SDS011;1482;51.398;7.128;2022-10-16T03:26:18;2.30;;;2.10;;
2944;SDS011;1482;51.398;7.128;2022-10-16T03:28:44;2.40;;;2.20;;
2944;SDS011;1482;51.398;7.128;2022-10-16T03:31:09;2.40;;;1.80;;
2944;SDS011;1482;51.398;7.128;2022-10-16T03:33:35;3.43;;;1.57;;
2944;SDS011;1482;51.398;7.128;2022-10-16T03:36:00;2.10;;;2.00;;
2944;SDS011;1482;51.398;7.128;2022-10-16T03:38:26;2.27;;;2.00;;
2944;SDS011;1482;51.398;7.128;2022-10-16T03:40:51;3.23;;;2.07;;
2944;SDS011;1482;51.398;7.128;2022-10-16T03:43:17;2.50;;;2.30;;
2944;SDS011;1482;51.398;7.128;2022-10-16T03:45:43;2.03;;;1.83;;
2944;SDS011;1482;51.398;7.128;2022-10-16T03:48:08;1.70;;;1.57;;
2944;SDS011;1482;51.398;7.128;2022-10-16T03:50:34;1.50;;;1.40;;
2944;SDS011;1482;51.398;7.128;2022-10-16T03:52:59;2.10;;;1.90;;
2944;SDS011;1482;51.398;7.128;2022-10-16T03:55:25;5.10;;;1.57;;
2944;SDS011;1482;51.398;7.128;2022-10-16T03:57:50;1.90;;;1.50;;
2944;SDS011;1482;51.398;7.128;2022-10-16T04:00:16;2.13;;;1.57;;
2944;SDS011;1482;51.398;7.128;2022-10-16T04:02:41;1.77;;;1.67;;
2944;SDS011;1482;51.398;7.128;2022-10-16T04:05:07;1.40;;;1.30;;
2944;SDS011;1482;51.398;7.128;2022-10-16T04:07:33;3.70;;;1.87;;
2944;SDS011;1482;51.398;7.128;2022-10-16T04:09:58;2.30;;;1.73;;
2944;SDS011;1482;51.398;7.128;2022-10-16T04:12:25;3.47;;;1.77;;
2944;SDS011;1482;51.398;7.128;2022-10-16T04:14:51;1.77;;;1.67;;
2944;SDS011;1482;51.398;7.128;2022-10-16T04:17:17;3.43;;;1.77;;
2944;SDS011;1482;51.398;7.128;2022-10-16T04:19:42;1.40;;;1.30;;
2944;SDS011;1482;51.398;7.128;2022-10-16T04:22:08;3.63;;;1.70;;
2944;SDS011;1482;51.398;7.128;2022-10-16T04:24:33;1.63;;;1.53;;
2944;SDS011;1482;51.398;7.128;2022-10-16T04:26:59;4.20;;;1.43;;
2944;SDS011;1482;51.398;7.128;2022-10-16T04:29:24;1.50;;;1.37;;
2944;SDS011;1482;51.398;7.128;2022-10-16T04:31:50;1.77;;;1.67;;
2944;SDS011;1482;51.398;7.128;2022-10-16T04:34:15;2.77;;;1.40;;
2944;SDS011;1482;51.398;7.128;2022-10-16T04:36:41;7.67;;;1.40;;
2944;SDS011;1482;51.398;7.128;2022-10-16T04:39:06;3.00;;;1.43;;
2944;SDS011;1482;51.398;7.128;2022-10-16T04:41:32;2.63;;;1.50;;
2944;SDS011;1482;51.398;7.128;2022-10-16T04:43:58;2.37;;;1.73;;
2944;SDS011;1482;51.398;7.128;2022-10-16T04:46:23;2.13;;;1.70;;
2944;SDS011;1482;51.398;7.128;2022-10-16T04:48:49;3.20;;;1.73;;
2944;SDS011;1482;51.398;7.128;2022-10-16T04:51:14;1.70;;;1.50;;
2944;SDS011;1482;51.398;7.128;2022-10-16T04:53:40;1.53;;;1.43;;
2944;SDS011;1482;51.398;7.128;2022-10-16T04:56:05;2.10;;;1.90;;
2944;SDS011;1482;51.398;7.128;2022-10-16T04:58:31;1.87;;;1.40;;
2944;SDS011;1482;51.398;7.128;2022-10-16T05:00:57;3.43;;;1.83;;
2944;SDS011;1482;51.398;7.128;2022-10-16T05:03:22;6.00;;;2.00;;
2944;SDS011;1482;51.398;7.128;2022-10-16T05:05:48;1.83;;;1.70;;
2944;SDS011;1482;51.398;7.128;2022-10-16T05:08:13;4.23;;;1.93;;
2944;SDS011;1482;51.398;7.128;2022-10-16T05:10:41;3.87;;;1.70;;
2944;SDS011;1482;51.398;7.128;2022-10-16T05:13:07;6.57;;;2.40;;
2944;SDS011;1482;51.398;7.128;2022-10-16T05:15:33;3.43;;;1.60;;
2944;SDS011;1482;51.398;7.128;2022-10-16T05:17:59;4.17;;;1.57;;
2944;SDS011;1482;51.398;7.128;2022-10-16T05:20:24;1.80;;;1.63;;
2944;SDS011;1482;51.398;7.128;2022-10-16T05:22:50;2.73;;;2.53;;
2944;SDS011;1482;51.398;7.128;2022-10-16T05:25:15;4.93;;;1.90;;
2944;SDS011;1482;51.398;7.128;2022-10-16T05:27:41;2.50;;;1.90;;
2944;SDS011;1482;51.398;7.128;2022-10-16T05:30:07;1.80;;;1.70;;
2944;SDS011;1482;51.398;7.128;2022-10-16T05:32:33;2.27;;;2.07;;
2944;SDS011;1482;51.398;7.128;2022-10-16T05:34:58;3.57;;;1.73;;
2944;SDS011;1482;51.398;7.128;2022-10-16T05:37:25;2.90;;;1.77;;
2944;SDS011;1482;51.398;7.128;2022-10-16T05:39:51;4.17;;;2.80;;
2944;SDS011;1482;51.398;7.128;2022-10-16T05:42:17;2.00;;;1.80;;
2944;SDS011;1482;51.398;7.128;2022-10-16T05:44:43;4.17;;;1.97;;
2944;SDS011;1482;51.398;7.128;2022-10-16T05:47:09;2.13;;;1.97;;
2944;SDS011;1482;51.398;7.128;2022-10-16T05:49:35;2.90;;;1.73;;
2944;SDS011;1482;51.398;7.128;2022-10-16T05:52:01;1.70;;;1.60;;
2944;SDS011;1482;51.398;7.128;2022-10-16T05:54:29;1.67;;;1.57;;
2944;SDS011;1482;51.398;7.128;2022-10-16T05:56:55;1.80;;;1.70;;
2944;SDS011;1482;51.398;7.128;2022-10-16T05:59:20;2.00;;;1.47;;
2944;SDS011;1482;51.398;7.128;2022-10-16T06:01:46;3.73;;;1.90;;
2944;SDS011;1482;51.398;7.128;2022-10-16T06:04:11;3.50;;;1.93;;
2944;SDS011;1482;51.398;7.128;2022-10-16T06:06:37;2.17;;;1.90;;
2944;SDS011;1482;51.398;7.128;2022-10-16T06:09:06;2.50;;;1.73;;
2944;SDS011;1482;51.398;7.128;2022-10-16T06:11:32;1.90;;;1.80;;
2944;SDS011;1482;51.398;7.128;2022-10-16T06:13:59;2.13;;;2.03;;
2944;SDS011;1482;51.398;7.128;2022-10-16T06:16:27;1.97;;;1.87;;
2944;SDS011;1482;51.398;7.128;2022-10-16T06:18:54;1.80;;;1.70;;
2944;SDS011;1482;51.398;7.128;2022-10-16T06:21:21;2.50;;;2.13;;
2944;SDS011;1482;51.398;7.128;2022-10-16T06:23:50;3.70;;;2.07;;
2944;SDS011;1482;51.398;7.128;2022-10-16T06:26:17;2.33;;;2.10;;
2944;SDS011;1482;51.398;7.128;2022-10-16T06:28:44;4.80;;;2.30;;
2944;SDS011;1482;51.398;7.128;2022-10-16T06:31:11;5.00;;;1.80;;
2944;SDS011;1482;51.398;7.128;2022-10-16T06:33:37;2.23;;;1.90;;
2944;SDS011;1482;51.398;7.128;2022-10-16T06:36:10;3.17;;;1.80;;
2944;SDS011;1482;51.398;7.128;2022-10-16T06:38:38;1.63;;;1.53;;
2944;SDS011;1482;51.398;7.128;2022-10-16T06:41:05;3.30;;;1.80;;
2944;SDS011;1482;51.398;7.128;2022-10-16T06:43:32;3.43;;;2.30;;
2944;SDS011;1482;51.398;7.128;2022-10-16T06:46:00;2.30;;;2.10;;
2944;SDS011;1482;51.398;7.128;2022-10-16T06:48:27;3.43;;;2.40;;
2944;SDS011;1482;51.398;7.128;2022-10-16T06:51:03;1.50;;;1.40;;
2944;SDS011;1482;51.398;7.128;2022-10-16T06:53:32;2.60;;;1.97;;
2944;SDS011;1482;51.398;7.128;2022-10-16T06:56:12;4.13;;;1.63;;
2944;SDS011;1482;51.398;7.128;2022-10-16T06:58:42;2.27;;;1.90;;
2944;SDS011;1482;51.398;7.128;2022-10-16T07:01:08;12.43;;;3.10;;
2944;SDS011;1482;51.398;7.128;2022-10-16T07:03:38;5.57;;;2.10;;
2944;SDS011;1482;51.398;7.128;2022-10-16T07:06:05;2.03;;;1.70;;
2944;SDS011;1482;51.398;7.128;2022-10-16T07:08:32;1.70;;;1.60;;
2944;SDS011;1482;51.398;7.128;2022-10-16T07:11:03;1.70;;;1.60;;
2944;SDS011;1482;51.398;7.128;2022-10-16T07:13:34;2.93;;;1.50;;
2944;SDS011;1482;51.398;7.128;2022-10-16T07:16:07;1.83;;;1.50;;
2944;SDS011;1482;51.398;7.128;2022-10-16T07:18:38;2.33;;;1.60;;
2944;SDS011;1482;51.398;7.128;2022-10-16T07:21:06;1.93;;;1.80;;
2944;SDS011;1482;51.398;7.128;2022-10-16T07:23:33;2.27;;;1.50;;
2944;SDS011;1482;51.398;7.128;2022-10-16T07:25:58;2.37;;;1.70;;
2944;SDS011;1482;51.398;7.128;2022-10-16T07:28:24;2.93;;;1.50;;
2944;SDS011;1482;51.398;7.128;2022-10-16T07:30:53;2.50;;;2.30;;
2944;SDS011;1482;51.398;7.128;2022-10-16T07:33:19;1.93;;;1.50;;
2944;SDS011;1482;51.398;7.128;2022-10-16T07:35:51;2.23;;;1.80;;
2944;SDS011;1482;51.398;7.128;2022-10-16T07:38:18;2.07;;;1.53;;
2944;SDS011;1482;51.398;7.128;2022-10-16T07:40:43;4.27;;;1.70;;
2944;SDS011;1482;51.398;7.128;2022-10-16T07:43:09;4.43;;;1.77;;
2944;SDS011;1482;51.398;7.128;2022-10-16T07:45:35;2.00;;;1.40;;
2944;SDS011;1482;51.398;7.128;2022-10-16T07:48:00;2.60;;;1.60;;
2944;SDS011;1482;51.398;7.128;2022-10-16T07:50:26;2.30;;;1.50;;
2944;SDS011;1482;51.398;7.128;2022-10-16T07:52:51;1.90;;;1.80;;
2944;SDS011;1482;51.398;7.128;2022-10-16T07:55:17;3.10;;;1.60;;
2944;SDS011;1482;51.398;7.128;2022-10-16T07:57:43;3.80;;;2.20;;
2944;SDS011;1482;51.398;7.128;2022-10-16T08:00:08;3.50;;;2.27;;
2944;SDS011;1482;51.398;7.128;2022-10-16T08:02:41;4.90;;;2.57;;
2944;SDS011;1482;51.398;7.128;2022-10-16T08:05:07;3.90;;;2.90;;
2944;SDS011;1482;51.398;7.128;2022-10-16T08:07:33;5.93;;;3.10;;
2944;SDS011;1482;51.398;7.128;2022-10-16T08:09:58;4.47;;;2.83;;
2944;SDS011;1482;51.398;7.128;2022-10-16T08:12:25;3.20;;;3.00;;
2944;SDS011;1482;51.398;7.128;2022-10-16T08:14:51;3.43;;;3.23;;
2944;SDS011;1482;51.398;7.128;2022-10-16T08:17:16;4.03;;;3.53;;
2944;SDS011;1482;51.398;7.128;2022-10-16T08:19:45;3.67;;;3.37;;
2944;SDS011;1482;51.398;7.128;2022-10-16T08:22:12;6.20;;;3.80;;
2944;SDS011;1482;51.398;7.128;2022-10-16T08:24:38;9.20;;;5.07;;
2944;SDS011;1482;51.398;7.128;2022-10-16T08:27:04;4.13;;;3.73;;
2944;SDS011;1482;51.398;7.128;2022-10-16T08:29:29;4.57;;;3.70;;
2944;SDS011;1482;51.398;7.128;2022-10-16T08:31:55;3.90;;;3.70;;
2944;SDS011;1482;51.398;7.128;2022-10-16T08:34:20;3.47;;;3.33;;
2944;SDS011;1482;51.398;7.128;2022-10-16T08:36:46;4.30;;;3.93;;
2944;SDS011;1482;51.398;7.128;2022-10-16T08:39:11;8.23;;;4.40;;
2944;SDS011;1482;51.398;7.128;2022-10-16T08:42:02;9.13;;;3.60;;
2944;SDS011;1482;51.398;7.128;2022-10-16T08:47:24;3.70;;;3.40;;
2944;SDS011;1482;51.398;7.128;2022-10-16T08:49:57;8.40;;;3.13;;
2944;SDS011;1482;51.398;7.128;2022-10-16T08:52:27;3.50;;;3.30;;
2944;SDS011;1482;51.398;7.128;2022-10-16T08:54:55;3.93;;;3.60;;
2944;SDS011;1482;51.398;7.128;2022-10-16T08:57:22;3.40;;;3.20;;
2944;SDS011;1482;51.398;7.128;2022-10-16T08:59:49;3.50;;;3.20;;
2944;SDS011;1482;51.398;7.128;2022-10-16T09:02:24;3.40;;;3.10;;
2944;SDS011;1482;51.398;7.128;2022-10-16T09:18:32;6.83;;;5.07;;
2944;SDS011;1482;51.398;7.128;2022-10-16T09:21:09;3.50;;;3.20;;
2944;SDS011;1482;51.398;7.128;2022-10-16T09:23:44;3.60;;;3.40;;
2944;SDS011;1482;51.398;7.128;2022-10-16T09:26:11;5.30;;;3.30;;
2944;SDS011;1482;51.398;7.128;2022-10-16T09:28:38;21.67;;;4.17;;
2944;SDS011;1482;51.398;7.128;2022-10-16T09:31:04;16.67;;;3.83;;
2944;SDS011;1482;51.398;7.128;2022-10-16T09:33:33;20.13;;;3.73;;
2944;SDS011;1482;51.398;7.128;2022-10-16T09:36:02;16.17;;;3.70;;
2944;SDS011;1482;51.398;7.128;2022-10-16T09:38:30;15.87;;;3.40;;
2944;SDS011;1482;51.398;7.128;2022-10-16T09:40:58;17.97;;;3.50;;
2944;SDS011;1482;51.398;7.128;2022-10-16T09:43:57;16.50;;;3.50;;
2944;SDS011;1482;51.398;7.128;2022-10-16T09:49:02;18.30;;;3.20;;
2944;SDS011;1482;51.398;7.128;2022-10-16T09:53:56;13.60;;;3.00;;
2944;SDS011;1482;51.398;7.128;2022-10-16T09:56:25;16.67;;;3.10;;
2944;SDS011;1482;51.398;7.128;2022-10-16T09:58:54;13.23;;;2.70;;
2944;SDS011;1482;51.398;7.128;2022-10-16T10:01:22;16.93;;;3.07;;
2944;SDS011;1482;51.398;7.128;2022-10-16T10:03:55;12.17;;;2.03;;
2944;SDS011;1482;51.398;7.128;2022-10-16T10:06:29;12.50;;;2.20;;
2944;SDS011;1482;51.398;7.128;2022-10-16T10:09:20;9.80;;;2.10;;
2944;SDS011;1482;51.398;7.128;2022-10-16T10:11:53;8.97;;;2.40;;
2944;SDS011;1482;51.398;7.128;2022-10-16T10:14:24;11.87;;;1.80;;
2944;SDS011;1482;51.398;7.128;2022-10-16T10:17:07;8.67;;;1.80;;
2944;SDS011;1482;51.398;7.128;2022-10-16T10:27:59;8.27;;;2.80;;
2944;SDS011;1482;51.398;7.128;2022-10-16T10:33:28;8.90;;;2.63;;
2944;SDS011;1482;51.398;7.128;2022-10-16T10:36:14;6.80;;;2.00;;
2944;SDS011;1482;51.398;7.128;2022-10-16T10:38:52;6.90;;;1.90;;
2944;SDS011;1482;51.398;7.128;2022-10-16T10:44:21;7.30;;;2.03;;
2944;SDS011;1482;51.398;7.128;2022-10-16T10:47:12;10.37;;;3.30;;
2944;SDS011;1482;51.398;7.128;2022-10-16T10:52:48;8.83;;;2.23;;
2944;SDS011;1482;51.398;7.128;2022-10-16T10:58:24;6.10;;;1.90;;
2944;SDS011;1482;51.398;7.128;2022-10-16T11:03:33;6.93;;;2.20;;
2944;SDS011;1482;51.398;7.128;2022-10-16T11:06:15;5.80;;;1.93;;
2944;SDS011;1482;51.398;7.128;2022-10-16T11:11:25;7.37;;;1.57;;
2944;SDS011;1482;51.398;7.128;2022-10-16T11:19:48;4.30;;;1.43;;
2944;SDS011;1482;51.398;7.128;2022-10-16T11:22:19;5.73;;;1.53;;
2944;SDS011;1482;51.398;7.128;2022-10-16T11:24:59;4.90;;;1.50;;
2944;SDS011;1482;51.398;7.128;2022-10-16T11:27:43;6.90;;;1.60;;
2944;SDS011;1482;51.398;7.128;2022-10-16T11:30:16;7.77;;;1.70;;
2944;SDS011;1482;51.398;7.128;2022-10-16T11:38:34;4.20;;;1.40;;
2944;SDS011;1482;51.398;7.128;2022-10-16T11:41:27;5.33;;;1.70;;
2944;SDS011;1482;51.398;7.128;2022-10-16T11:46:40;8.40;;;2.10;;
2944;SDS011;1482;51.398;7.128;2022-10-16T11:49:12;4.80;;;1.37;;
2944;SDS011;1482;51.398;7.128;2022-10-16T11:51:48;4.43;;;1.50;;
2944;SDS011;1482;51.398;7.128;2022-10-16T11:54:39;5.40;;;1.70;;
2944;SDS011;1482;51.398;7.128;2022-10-16T11:57:21;5.73;;;1.50;;
2944;SDS011;1482;51.398;7.128;2022-10-16T12:05:22;4.90;;;1.70;;
2944;SDS011;1482;51.398;7.128;2022-10-16T12:08:11;7.00;;;1.90;;
2944;SDS011;1482;51.398;7.128;2022-10-16T12:10:39;7.33;;;1.60;;
2944;SDS011;1482;51.398;7.128;2022-10-16T12:18:30;5.53;;;1.87;;
2944;SDS011;1482;51.398;7.128;2022-10-16T12:20:56;5.67;;;2.37;;
2944;SDS011;1482;51.398;7.128;2022-10-16T12:23:24;4.13;;;1.40;;
2944;SDS011;1482;51.398;7.128;2022-10-16T12:25:57;5.27;;;1.60;;
2944;SDS011;1482;51.398;7.128;2022-10-16T12:28:31;5.80;;;1.80;;
2944;SDS011;1482;51.398;7.128;2022-10-16T12:31:02;6.37;;;1.43;;
2944;SDS011;1482;51.398;7.128;2022-10-16T12:33:34;4.83;;;1.50;;
2944;SDS011;1482;51.398;7.128;2022-10-16T12:36:08;6.33;;;1.73;;
2944;SDS011;1482;51.398;7.128;2022-10-16T12:38:51;6.10;;;1.83;;
2944;SDS011;1482;51.398;7.128;2022-10-16T12:41:27;4.27;;;1.60;;
2944;SDS011;1482;51.398;7.128;2022-10-16T12:43:59;5.27;;;1.37;;
2944;SDS011;1482;51.398;7.128;2022-10-16T12:49:06;5.40;;;1.40;;
2944;SDS011;1482;51.398;7.128;2022-10-16T12:56:38;5.07;;;1.63;;
2944;SDS011;1482;51.398;7.128;2022-10-16T13:04:35;4.40;;;1.50;;
2944;SDS011;1482;51.398;7.128;2022-10-16T13:10:28;5.70;;;1.33;;
2944;SDS011;1482;51.398;7.128;2022-10-16T13:18:45;5.27;;;1.60;;
2944;SDS011;1482;51.398;7.128;2022-10-16T13:29:52;7.27;;;1.70;;
2944;SDS011;1482;51.398;7.128;2022-10-16T13:32:25;8.20;;;1.57;;
2944;SDS011;1482;51.398;7.128;2022-10-16T13:34:52;7.10;;;1.67;;
2944;SDS011;1482;51.398;7.128;2022-10-16T13:37:19;5.80;;;2.07;;
2944;SDS011;1482;51.398;7.128;2022-10-16T13:39:46;6.80;;;2.10;;
2944;SDS011;1482;51.398;7.128;2022-10-16T13:42:20;4.03;;;1.50;;
2944;SDS011;1482;51.398;7.128;2022-10-16T13:44:50;4.30;;;1.40;;
2944;SDS011;1482;51.398;7.128;2022-10-16T13:47:18;10.10;;;1.70;;
2944;SDS011;1482;51.398;7.128;2022-10-16T13:50:00;3.60;;;1.63;;
2944;SDS011;1482;51.398;7.128;2022-10-16T13:52:27;4.23;;;1.20;;
2944;SDS011;1482;51.398;7.128;2022-10-16T13:54:53;3.90;;;1.70;;
2944;SDS011;1482;51.398;7.128;2022-10-16T13:57:21;5.77;;;1.40;;
2944;SDS011;1482;51.398;7.128;2022-10-16T13:59:48;6.50;;;1.70;;
2944;SDS011;1482;51.398;7.128;2022-10-16T14:02:31;4.67;;;1.80;;
2944;SDS011;1482;51.398;7.128;2022-10-16T14:05:02;3.47;;;1.80;;
2944;SDS011;1482;51.398;7.128;2022-10-16T14:07:29;5.00;;;2.40;;
2944;SDS011;1482;51.398;7.128;2022-10-16T14:10:01;6.07;;;1.63;;
2944;SDS011;1482;51.398;7.128;2022-10-16T14:12:29;2.70;;;1.20;;
2944;SDS011;1482;51.398;7.128;2022-10-16T14:14:55;6.37;;;1.53;;
2944;SDS011;1482;51.398;7.128;2022-10-16T14:17:24;3.33;;;1.40;;
2944;SDS011;1482;51.398;7.128;2022-10-16T14:20:02;3.97;;;1.50;;
2944;SDS011;1482;51.398;7.128;2022-10-16T14:22:31;3.93;;;1.43;;
2944;SDS011;1482;51.398;7.128;2022-10-16T14:24:59;5.60;;;1.73;;
2944;SDS011;1482;51.398;7.128;2022-10-16T14:30:05;5.53;;;1.57;;
2944;SDS011;1482;51.398;7.128;2022-10-16T14:32:36;5.87;;;1.50;;
2944;SDS011;1482;51.398;7.128;2022-10-16T14:35:21;4.37;;;1.70;;
2944;SDS011;1482;51.398;7.128;2022-10-16T14:37:51;2.20;;;1.33;;
2944;SDS011;1482;51.398;7.128;2022-10-16T14:40:18;3.40;;;1.40;;
2944;SDS011;1482;51.398;7.128;2022-10-16T14:42:45;2.60;;;1.67;;
2944;SDS011;1482;51.398;7.128;2022-10-16T14:45:11;1.77;;;1.20;;
2944;SDS011;1482;51.398;7.128;2022-10-16T14:47:37;2.70;;;1.27;;
2944;SDS011;1482;51.398;7.128;2022-10-16T14:50:15;1.93;;;1.20;;
2944;SDS011;1482;51.398;7.128;2022-10-16T14:52:40;4.93;;;1.30;;
2944;SDS011;1482;51.398;7.128;2022-10-16T14:55:09;1.70;;;1.40;;
2944;SDS011;1482;51.398;7.128;2022-10-16T14:57:35;1.93;;;1.40;;
2944;SDS011;1482;51.398;7.128;2022-10-16T15:00:03;2.23;;;1.13;;
2944;SDS011;1482;51.398;7.128;2022-10-16T15:02:37;1.80;;;1.50;;
2944;SDS011;1482;51.398;7.128;2022-10-16T15:07:43;2.00;;;0.93;;
2944;SDS011;1482;51.398;7.128;2022-10-16T15:10:10;3.10;;;1.23;;
2944;SDS011;1482;51.398;7.128;2022-10-16T15:12:36;2.00;;;1.40;;
2944;SDS011;1482;51.398;7.128;2022-10-16T15:15:09;7.07;;;1.33;;
2944;SDS011;1482;51.398;7.128;2022-10-16T15:17:39;2.80;;;1.37;;
2944;SDS011;1482;51.398;7.128;2022-10-16T15:20:05;3.10;;;1.30;;
2944;SDS011;1482;51.398;7.128;2022-10-16T15:22:31;3.80;;;1.33;;
2944;SDS011;1482;51.398;7.128;2022-10-16T15:24:56;3.30;;;1.63;;
2944;SDS011;1482;51.398;7.128;2022-10-16T15:27:25;5.33;;;1.50;;
2944;SDS011;1482;51.398;7.128;2022-10-16T15:29:50;1.53;;;1.43;;
2944;SDS011;1482;51.398;7.128;2022-10-16T15:32:16;1.50;;;1.13;;
2944;SDS011;1482;51.398;7.128;2022-10-16T15:34:42;1.50;;;1.00;;
2944;SDS011;1482;51.398;7.128;2022-10-16T15:37:08;2.23;;;1.20;;
2944;SDS011;1482;51.398;7.128;2022-10-16T15:39:34;2.33;;;1.53;;
2944;SDS011;1482;51.398;7.128;2022-10-16T15:41:59;2.43;;;1.37;;
2944;SDS011;1482;51.398;7.128;2022-10-16T15:44:25;5.30;;;1.50;;
2944;SDS011;1482;51.398;7.128;2022-10-16T15:46:54;3.90;;;2.20;;
2944;SDS011;1482;51.398;7.128;2022-10-16T15:49:21;1.57;;;1.47;;
2944;SDS011;1482;51.398;7.128;2022-10-16T15:51:47;2.47;;;1.10;;
2944;SDS011;1482;51.398;7.128;2022-10-16T15:54:12;2.13;;;1.70;;
2944;SDS011;1482;51.398;7.128;2022-10-16T15:56:38;3.30;;;1.43;;
2944;SDS011;1482;51.398;7.128;2022-10-16T15:59:03;4.63;;;1.50;;
2944;SDS011;1482;51.398;7.128;2022-10-16T16:01:32;3.97;;;1.37;;
2944;SDS011;1482;51.398;7.128;2022-10-16T16:03:58;1.70;;;1.57;;
2944;SDS011;1482;51.398;7.128;2022-10-16T16:06:24;4.03;;;1.63;;
2944;SDS011;1482;51.398;7.128;2022-10-16T16:08:50;2.30;;;2.07;;
2944;SDS011;1482;51.398;7.128;2022-10-16T16:11:16;2.40;;;1.70;;
2944;SDS011;1482;51.398;7.128;2022-10-16T16:13:43;3.83;;;2.20;;
2944;SDS011;1482;51.398;7.128;2022-10-16T16:16:10;3.73;;;1.30;;
2944;SDS011;1482;51.398;7.128;2022-10-16T16:18:37;3.00;;;1.60;;
2944;SDS011;1482;51.398;7.128;2022-10-16T16:21:03;3.23;;;1.37;;
2944;SDS011;1482;51.398;7.128;2022-10-16T16:23:29;2.90;;;1.30;;
2944;SDS011;1482;51.398;7.128;2022-10-16T16:26:02;5.30;;;2.00;;
2944;SDS011;1482;51.398;7.128;2022-10-16T16:28:29;4.17;;;1.47;;
2944;SDS011;1482;51.398;7.128;2022-10-16T16:30:55;3.53;;;1.20;;
2944;SDS011;1482;51.398;7.128;2022-10-16T16:33:20;2.27;;;1.20;;
2944;SDS011;1482;51.398;7.128;2022-10-16T16:35:46;2.00;;;1.30;;
2944;SDS011;1482;51.398;7.128;2022-10-16T16:38:11;1.63;;;1.27;;
2944;SDS011;1482;51.398;7.128;2022-10-16T16:40:37;2.50;;;1.37;;
2944;SDS011;1482;51.398;7.128;2022-10-16T16:43:03;3.73;;;1.80;;
2944;SDS011;1482;51.398;7.128;2022-10-16T16:45:29;3.43;;;1.40;;
2944;SDS011;1482;51.398;7.128;2022-10-16T16:47:55;5.80;;;1.50;;
2944;SDS011;1482;51.398;7.128;2022-10-16T16:50:23;1.97;;;1.60;;
2944;SDS011;1482;51.398;7.128;2022-10-16T16:52:52;1.50;;;1.40;;
2944;SDS011;1482;51.398;7.128;2022-10-16T16:55:18;3.50;;;2.13;;
2944;SDS011;1482;51.398;7.128;2022-10-16T16:57:44;1.30;;;1.20;;
2944;SDS011;1482;51.398;7.128;2022-10-16T17:00:13;3.13;;;1.50;;
2944;SDS011;1482;51.398;7.128;2022-10-16T17:02:39;2.20;;;2.00;;
2944;SDS011;1482;51.398;7.128;2022-10-16T17:05:08;2.97;;;1.67;;
2944;SDS011;1482;51.398;7.128;2022-10-16T17:07:34;3.97;;;2.57;;
2944;SDS011;1482;51.398;7.128;2022-10-16T17:10:00;12.70;;;2.80;;
2944;SDS011;1482;51.398;7.128;2022-10-16T17:12:28;9.93;;;2.07;;
2944;SDS011;1482;51.398;7.128;2022-10-16T17:14:55;4.13;;;1.60;;
2944;SDS011;1482;51.398;7.128;2022-10-16T17:17:23;2.60;;;1.87;;
2944;SDS011;1482;51.398;7.128;2022-10-16T17:19:49;6.20;;;2.23;;
2944;SDS011;1482;51.398;7.128;2022-10-16T17:22:15;2.50;;;2.30;;
2944;SDS011;1482;51.398;7.128;2022-10-16T17:24:41;2.50;;;2.30;;
2944;SDS011;1482;51.398;7.128;2022-10-16T17:27:07;5.87;;;3.53;;
2944;SDS011;1482;51.398;7.128;2022-10-16T17:29:34;5.43;;;2.53;;
2944;SDS011;1482;51.398;7.128;2022-10-16T17:32:00;4.63;;;2.10;;